Weather observations for the past three days for
Mora Municipal Airport
Imperial (Metric)
Date Time (cdt) Wind (mph) Vis. (mi.) Weather Sky Cond. Temperature (ºF) Relative Humidity Wind Chill (°F) Heat Index (°F) Pressure Precipitation (in)
Air Dwpt 6 hour altimeter (in) sea level (mb) 1 hr 3 hr 6 hr
Max. Min.
03 06:15 Calm 10.00 Mostly Cloudy SCT029 BKN035 62.6 57.2 83% 29.92 0.0
03 05:55 Calm 10.00 Fair CLR 64.4 55.4 73% 29.91 0.0
03 05:35 Calm 10.00 Fair CLR 64.4 55.4 73% 29.91 0.0
03 05:15 Calm 10.00 Fair CLR 64.4 57.2 78% 29.91 0.0
03 04:55 Calm 10.00 Partly Cloudy SCT030 64.4 57.2 78% 29.9 0.0
03 04:35 Calm 10.00 Mostly Cloudy BKN030 64.4 59 83% 29.91 0.0
03 04:15 Calm 10.00 Partly Cloudy SCT030 62.6 57.2 83% 29.91 0.0
03 03:55 Calm 10.00 Fair CLR 64.4 59 83% 29.91 0.0
03 03:35 Calm 10.00 Fair CLR 64.4 59 83% 29.92 0.0
03 03:15 Calm 10.00 Fair CLR 62.6 59 88% 29.92 0.0
03 02:55 Calm 10.00 Fair CLR 64.4 59 83% 29.92 0.0
03 02:35 Calm 10.00 Fair CLR 64.4 59 83% 29.92 0.0
03 02:15 Calm 10.00 Fair CLR 64.4 59 83% 29.92 0.0
03 01:55 Calm 10.00 Fair CLR 64.4 59 83% 29.92 0.0
03 01:35 Calm 10.00 Fair CLR 64.4 59 83% 29.93 0.0
03 01:15 Calm 10.00 Fair CLR 64.4 59 83% 29.94 0.0
03 00:55 Calm 10.00 Partly Cloudy SCT060 64.4 59 83% 29.93 0.0
03 00:35 Calm 10.00 Partly Cloudy SCT060 64.4 59 83% 29.94 0.0
03 00:15 Calm 10.00 Fair CLR 64.4 60.8 88% 29.95 0.0
02 23:55 Calm 10.00 Fair CLR 64.4 60.8 88% 29.95 0.0
02 23:35 Calm 10.00 Fair CLR 64.4 60.8 88% 29.94 0.0
02 23:15 Calm 10.00 Partly Cloudy SCT080 64.4 60.8 88% 29.94 0.0
02 22:55 Calm 10.00 Partly Cloudy SCT080 SCT100 64.4 60.8 88% 29.94 0.0
02 22:35 Calm 10.00 Partly Cloudy SCT080 SCT100 64.4 60.8 88% 29.95 0.0
02 22:15 Calm 10.00 Fair CLR 66.2 60.8 83% 29.95 0.0
02 21:55 Calm 10.00 Fair CLR 66.2 60.8 83% 29.95 0.0
02 21:35 Calm 10.00 Partly Cloudy SCT090 68 62.6 83% 29.95 0.0
02 21:15 Calm 10.00 Mostly Cloudy BKN090 69.8 62.6 78% 29.94 0.0
02 20:55 Calm 10.00 Overcast OVC090 69.8 62.6 78% 29.94 0.0
02 20:35 Calm 10.00 Mostly Cloudy BKN090 69.8 62.6 78% 29.93 0.0
02 20:15 Calm 10.00 Mostly Cloudy BKN090 BKN120 71.6 60.8 69% 29.92 0.0
02 19:55 Calm 10.00 Partly Cloudy SCT100 71.6 60.8 69% 29.92 0.0
02 19:35 Calm 10.00 Partly Cloudy SCT100 73.4 60.8 65% 29.92 0.0
02 19:15 Calm 10.00 Partly Cloudy SCT100 77 59 54% 79 29.92 0.0
02 18:55 Calm 10.00 Partly Cloudy SCT110 78.8 59 51% 80 29.92 0.0
02 18:35 Calm 10.00 Fair CLR 80.6 59 48% 81 29.92 0.0
02 18:15 Calm 10.00 Fair CLR 80.6 59 48% 81 29.92 0.0
02 17:55 Calm 10.00 Fair CLR 80.6 57.2 45% 81 29.92 0.0
02 17:35 Calm 10.00 Fair CLR 82.4 57.2 42% 82 29.92 0.0
02 17:15 Calm 10.00 Fair CLR 82.4 55.4 40% 82 29.92 0.0
02 16:55 NW 3 10.00 Fair CLR 82.4 55.4 40% 82 29.92 0.0
02 16:35 Calm 10.00 Fair CLR 82.4 55.4 40% 82 29.93 0.0
02 16:15 Calm 10.00 Fair CLR 82.4 55.4 40% 82 29.92 0.0
02 15:55 Calm 10.00 Fair CLR 82.4 55.4 40% 82 29.93 0.0
02 15:35 E 5 10.00 Fair CLR 82.4 57.2 42% 82 29.93 0.0
02 15:15 Calm 10.00 Fair CLR 82.4 55.4 40% 82 29.93 0.0
02 14:55 Calm 10.00 Fair CLR 80.6 55.4 42% 81 29.94 0.0
02 14:35 Calm 10.00 Fair CLR 80.6 55.4 42% 81 29.95 0.0
02 14:15 E 3 10.00 Fair CLR 80.6 55.4 42% 81 29.96 0.0
02 13:55 SW 5 10.00 Fair CLR 78.8 55.4 45% 79 29.96 0.0
02 13:35 S 3 10.00 Fair CLR 78.8 55.4 45% 79 29.96 0.0
02 13:15 Calm 10.00 Fair CLR 78.8 57.2 48% 80 29.97 0.0
02 12:55 Calm 10.00 Fair CLR 78.8 57.2 48% 80 29.97 0.0
02 12:35 Calm 10.00 Fair CLR 77 57.2 51% 79 29.97 0.0
02 12:15 Calm 10.00 Fair CLR 73.4 59 61% 29.97 0.0
02 11:55 Calm 10.00 Fair CLR 73.4 60.8 65% 29.98 0.0
02 11:35 Calm 10.00 Fair CLR 73.4 59 61% 29.98 0.0
02 11:15 Calm 10.00 Partly Cloudy SCT120 73.4 60.8 65% 29.99 0.0
02 10:55 Calm 10.00 Mostly Cloudy BKN120 73.4 60.8 65% 29.99 0.0
02 10:35 Calm 10.00 Fair CLR 71.6 60.8 69% 29.99 0.0
02 10:15 Calm 10.00 Fair CLR 71.6 60.8 69% 29.97 0.0
02 09:55 S 3 10.00 Fair CLR 71.6 60.8 69% 29.97 0.0
02 09:35 Calm 10.00 Fair CLR 71.6 60.8 69% 29.97 0.0
02 09:15 Calm 10.00 Fair CLR 69.8 60.8 73% 29.98 0.0
02 08:55 Calm 10.00 Fair CLR 68 60.8 78% 29.98 0.0
02 08:35 Calm 10.00 Fair CLR 64.4 60.8 88% 29.98 0.0
02 08:15 Calm 10.00 Fair CLR 62.6 60.8 94% 29.98 0.0
02 07:55 Calm 10.00 Fair CLR 62.6 60.8 94% 29.99 0.0
02 07:35 Calm 10.00 Fair CLR 60.8 59 94% 29.99 0.0
02 07:15 Calm 10.00 Fair CLR 59 59 100% 29.99 0.0
02 06:55 Calm 10.00 Partly Cloudy SCT100 59 59 100% 29.98 0.0
02 06:35 Calm 10.00 Partly Cloudy SCT100 59 59 100% 29.99 0.0
02 06:15 Calm 10.00 Fair CLR 59 59 100% 29.98 0.0
02 05:55 Calm 10.00 Fair CLR 59 59 100% 29.96 0.0
02 05:35 Calm 10.00 Fair CLR 60.8 59 94% 29.96 0.0
02 05:15 Calm 10.00 Fair CLR 60.8 60.8 100% 29.96 0.0
02 04:55 Calm 10.00 Fair CLR 60.8 60.8 100% 0 0.0
02 04:35 Calm 10.00 Fair CLR 62.6 60.8 94% 29.97 0.0
02 04:15 Calm 10.00 Mostly Cloudy BKN100 62.6 60.8 94% 29.98 0.0
02 03:55 Calm 10.00 Overcast BKN100 OVC120 64.4 60.8 88% 29.98 0.0
02 03:35 Calm 10.00 Overcast OVC100 64.4 60.8 88% 29.97 0.0
02 03:15 Calm 10.00 Overcast OVC110 64.4 60.8 88% 29.96 0.0
02 02:55 Calm 10.00 Mostly Cloudy BKN110 64.4 60.8 88% 29.96 0.0
02 02:35 S 3 10.00 Mostly Cloudy BKN120 64.4 60.8 88% 29.96 0.0
02 02:15 Calm 10.00 Partly Cloudy SCT120 64.4 60.8 88% 29.96 0.0
02 01:55 Calm 10.00 Fair CLR 64.4 60.8 88% 29.95 0.0
02 01:35 Calm 10.00 Fair CLR 64.4 60.8 88% 29.95 0.0
02 01:15 Calm 10.00 Light Rain CLR 64.4 60.8 88% 29.96 0.0
02 00:55 Calm 10.00 Partly Cloudy SCT120 64.4 60.8 88% 29.98 0.0
02 00:35 Calm 10.00 Partly Cloudy SCT100 SCT120 64.4 60.8 88% 29.99 0.0
02 00:15 Calm 10.00 Fair CLR 66.2 60.8 83% 29.98 0.0
01 23:55 Calm 10.00 Fair CLR 66.2 59 78% 29.97 0.0
01 23:35 Calm 10.00 Partly Cloudy SCT110 64.4 62.6 94% 29.98 0.0
01 23:15 Calm 10.00 Fair CLR 66.2 62.6 88% 29.99 0.0
01 22:55 Calm 10.00 Fair CLR 66.2 60.8 83% 29.99 0.0
01 22:35 Calm 10.00 Fair CLR 66.2 60.8 83% 29.99 0.0
01 22:15 Calm 10.00 Light Rain CLR 66.2 62.6 88% 29.99 0.0
01 21:55 Calm 10.00 Fair CLR 68 62.6 83% 29.98 0.0
01 21:35 Calm 10.00 Fair CLR 66.2 62.6 88% 29.99 0.0
01 21:15 Calm 10.00 Fair CLR 68 60.8 78% 29.99 0.0
01 20:55 Calm 10.00 Fair CLR 68 60.8 78% 29.97 0.0
01 20:35 Calm 10.00 Fair CLR 68 60.8 78% 29.97 0.0
01 20:15 Calm 10.00 Fair CLR 68 62.6 83% 29.96 0.0
01 19:55 Calm 10.00 Fair CLR 68 60.8 78% 29.96 0.0
01 19:35 Calm 10.00 Fair CLR 71.6 60.8 69% 29.96 0.0
01 19:15 Calm 10.00 Fair CLR 77 59 54% 79 29.97 0.0
01 18:55 Calm 10.00 Fair CLR 77 59 54% 79 29.97 0.0
01 18:35 W 5 10.00 Fair CLR 77 59 54% 79 29.97 0.0
01 18:15 W 5 10.00 Fair CLR 78.8 55.4 45% 79 29.97 0.0
01 17:55 W 5 10.00 Fair CLR 78.8 57.2 48% 80 29.97 0.0
01 17:35 W 3 10.00 Fair CLR 78.8 55.4 45% 79 29.97 0.0
01 17:15 W 6 10.00 Fair CLR 78.8 57.2 48% 80 29.97 0.0
01 16:55 W 7 10.00 Fair CLR 78.8 55.4 45% 79 29.96 0.0
01 16:35 W 3 10.00 Fair CLR 78.8 55.4 45% 79 29.96 0.0
01 16:15 W 6 10.00 Fair CLR 80.6 57.2 45% 81 29.96 0.0
01 15:55 W 6 10.00 Fair CLR 80.6 57.2 45% 81 29.96 0.0
01 15:35 W 6 10.00 Fair CLR 80.6 55.4 42% 81 29.96 0.0
01 15:15 W 7 10.00 Fair CLR 82.4 59 45% 82 29.97 0.0
01 14:55 W 6 10.00 Fair CLR 80.6 55.4 42% 81 29.97 0.0
01 14:35 W 6 10.00 Fair CLR 80.6 55.4 42% 81 29.98 0.0
01 14:15 NW 6 10.00 Fair CLR 80.6 55.4 42% 81 29.98 0.0
01 13:55 W 6 10.00 Fair CLR 80.6 55.4 42% 81 29.98 0.0
01 13:35 SW 5 10.00 Fair CLR 80.6 55.4 42% 81 29.99 0.0
01 13:15 Calm 10.00 Fair CLR 80.6 55.4 42% 81 29.99 0.0
01 12:55 W 5 10.00 Fair CLR 80.6 57.2 45% 81 29.99 0.0
01 12:35 NW 5 10.00 Fair CLR 78.8 57.2 48% 80 30 0.0
01 12:15 W 3 10.00 Fair CLR 78.8 59 51% 80 30.01 0.0
01 11:55 W 3 10.00 Fair CLR 77 59 54% 79 30.01 0.0
01 11:35 Calm 10.00 Fair CLR 77 59 54% 79 30.01 0.0
01 11:15 Calm 10.00 Fair CLR 77 59 54% 79 30.01 0.0
01 10:55 Calm 10.00 Fair CLR 77 57.2 51% 79 30.01 0.0
01 10:35 NW 3 10.00 Fair CLR 75.2 59 57% 78 30.01 0.0
01 10:15 NW 3 10.00 Fair CLR 73.4 59 61% 30.01 0.0
01 09:55 Calm 10.00 Fair CLR 71.6 60.8 69% 30.01 0.0
01 09:35 Calm 10.00 Fair CLR 69.8 60.8 73% 30.01 0.0
01 09:16 Calm 10.00 Fair CLR 66.2 60.8 83% 30.01 0.0
01 08:55 W 5 10.00 Fair CLR 64.4 60.8 88% 30.01 0.0
01 08:35 Calm 10.00 Fair CLR 64.4 59 83% 30 0.0
01 08:15 Calm 10.00 Fair CLR 60.8 59 94% 30 0.0
01 07:55 Calm 10.00 Fair CLR 57.2 57.2 100% 30 0.0
01 07:35 Calm 10.00 Fair CLR 55.4 55.4 100% 30 0.0
01 07:15 Calm 10.00 Fair CLR 53.6 53.6 100% 29.99 0.0
01 06:55 Calm 10.00 Fair CLR 53.6 53.6 100% 29.99 0.0
01 06:35 Calm 4.00 Fog/Mist CLR 53.6 51.8 94% 29.98 0.0
01 06:15 Calm 4.00 Fog/Mist CLR 53.6 53.6 100% 29.97 0.0
01 05:55 Calm 7.00 Fair CLR 53.6 53.6 100% 29.98 0.0
01 05:35 Calm 10.00 Fair CLR 53.6 53.6 100% 29.97 0.0
01 05:15 Calm 10.00 Fair CLR 53.6 53.6 100% 29.96 0.0
01 04:55 Calm 3.00 Fog/Mist CLR 53.6 53.6 100% 29.96 0.0
01 04:35 Calm 5.00 Fog/Mist CLR 55.4 55.4 100% 29.96 0.0
01 04:15 Calm 5.00 Fog/Mist CLR 55.4 55.4 100% 29.96 0.0
01 03:55 Calm 7.00 Fair CLR 55.4 55.4 100% 29.96 0.0
01 03:35 Calm 4.00 Fog/Mist CLR 55.4 55.4 100% 29.96 0.0
01 03:15 Calm 5.00 Fog/Mist CLR 55.4 55.4 100% 29.96 0.0
01 02:55 Calm 7.00 Fair CLR 55.4 55.4 100% 29.95 0.0
01 02:35 Calm 5.00 Fog/Mist CLR 55.4 55.4 100% 29.96 0.0
01 02:15 Calm 2.00 Fog/Mist CLR 55.4 55.4 100% 29.96 0.0
01 01:55 Calm 7.00 Fair CLR 57.2 55.4 94% 29.97 0.0
01 01:35 Calm 10.00 Fair CLR 57.2 57.2 100% 29.97 0.0
01 01:15 Calm 10.00 Fair CLR 59 57.2 94% 29.97 0.0
01 00:55 Calm 4.00 Fog/Mist CLR 59 59 100% 29.97 0.0
01 00:35 Calm 10.00 Fair CLR 59 59 100% 29.97 0.0
01 00:15 Calm 10.00 Fair CLR 59 59 100% 29.97 0.0
31 23:55 Calm 10.00 Fair CLR 60.8 60.8 100% 29.97 0.0
31 23:35 Calm 10.00 Fair CLR 60.8 60.8 100% 29.96 0.0
31 23:15 Calm 10.00 Fair CLR 60.8 60.8 100% 29.96 0.0
31 22:55 Calm 10.00 Fair CLR 60.8 60.8 100% 29.96 0.0
31 22:35 Calm 10.00 Fair CLR 62.6 60.8 94% 29.96 0.0
31 22:15 Calm 10.00 Fair CLR 62.6 60.8 94% 29.96 0.0
31 21:55 Calm 10.00 Fair CLR 64.4 60.8 88% 29.95 0.0
31 21:35 Calm 10.00 Fair CLR 64.4 60.8 88% 29.95 0.0
31 21:15 Calm 10.00 Fair CLR 64.4 60.8 88% 29.95 0.0
31 20:55 Calm 10.00 Fair CLR 68 62.6 83% 29.94 0.0
31 20:35 Calm 10.00 Fair CLR 68 60.8 78% 29.93 0.0
31 20:15 Calm 10.00 Fair CLR 69.8 62.6 78% 29.93 0.0
31 19:55 Calm 10.00 Fair CLR 77 60.8 57% 79 29.93 0.0
31 19:35 Calm 10.00 Fair CLR 78.8 60.8 54% 80 29.93 0.0
31 19:15 Calm 10.00 Fair CLR 78.8 60.8 54% 80 29.93 0.0
31 18:55 W 7 10.00 Fair CLR 80.6 60.8 51% 81 29.92 0.0
31 18:35 W 5 10.00 Fair CLR 82.4 59 45% 82 29.92 0.0
31 18:15 W 5 10.00 Fair CLR 84.2 57.2 40% 83 29.92 0.0
31 17:55 W 5 10.00 Fair CLR 84.2 57.2 40% 83 29.92 0.0
31 17:35 NW 5 10.00 Fair CLR 84.2 59 43% 84 29.91 0.0
31 17:15 NW 6 10.00 Fair CLR 84.2 59 43% 84 29.91 0.0
31 16:55 NW 5 10.00 Fair CLR 84.2 57.2 40% 83 29.91 0.0
31 16:35 W 5 10.00 Fair CLR 84.2 60.8 45% 84 29.91 0.0
31 16:15 NW 3 10.00 Fair CLR 84.2 62.6 48% 85 29.91 0.0
31 15:55 N 5 10.00 Fair CLR 84.2 62.6 48% 85 29.91 0.0
31 15:35 NW 7 10.00 Fair CLR 84.2 64.4 51% 86 29.91 0.0
31 15:15 N 5 10.00 Fair CLR 82.4 64.4 55% 84 29.91 0.0
31 14:55 W 6 10.00 Fair CLR 86 60.8 43% 86 29.9 0.0
31 14:35 W 8 10.00 Fair CLR 84.2 60.8 45% 84 29.9 0.0
31 14:15 W 7 10.00 Fair CLR 82.4 60.8 48% 83 29.9 0.0
31 13:55 NW 6 10.00 Fair CLR 84.2 60.8 45% 84 29.9 0.0
31 13:35 W 6 10.00 Fair CLR 82.4 64.4 55% 84 29.9 0.0
31 13:15 NW 3 10.00 Fair CLR 82.4 64.4 55% 84 29.9 0.0
31 12:55 NW 3 10.00 Fair CLR 82.4 68 62% 85 29.9 0.0
31 12:35 Calm 10.00 Fair CLR 80.6 68 66% 83 29.91 0.0
31 12:15 W 5 10.00 Partly Cloudy SCT025 80.6 68 66% 83 29.9 0.0
31 11:55 W 6 10.00 Partly Cloudy SCT025 80.6 68 66% 83 29.9 0.0
31 11:35 NW 9 10.00 Partly Cloudy SCT023 80.6 69.8 70% 84 29.9 0.0
31 11:15 NW 5 10.00 Partly Cloudy SCT017 78.8 69.8 74% 81 29.89 0.0
31 10:55 NW 6 10.00 Mostly Cloudy BKN017 78.8 69.8 74% 81 29.88 0.0
31 10:35 NW 5 10.00 Mostly Cloudy BKN017 77 69.8 79% 79 29.88 0.0
31 10:15 NW 3 10.00 Partly Cloudy SCT012 SCT017 75.2 69.8 83% 75 29.88 0.0
31 09:55 Calm 10.00 Mostly Cloudy SCT005 BKN016 73.4 69.8 89% 29.87 0.0
31 09:35 Calm 5.00 Fog/Mist OVC003 69.8 69.8 100% 29.87 0.0
31 09:15 Calm 2.00 Fog/Mist OVC003 69.8 69.8 100% 29.87 0.0
31 08:55 Calm 2.50 Fog/Mist OVC003 69.8 68 94% 29.87 0.0
31 08:35 SW 3 4.00 Fog/Mist OVC003 69.8 68 94% 29.86 0.0
31 08:15 Calm 4.00 Fog/Mist OVC005 69.8 68 94% 29.84 0.0
31 07:55 Calm 4.00 Fog/Mist OVC005 68 68 100% 29.83 0.0
31 07:35 Calm 7.00 Overcast OVC007 68 68 100% 29.83 0.0
31 07:15 Calm 7.00 Overcast OVC007 68 68 100% 29.83 0.0
31 06:55 Calm 10.00 Overcast OVC007 68 68 100% 29.81 0.0
31 06:35 Calm 10.00 Overcast OVC007 68 66.2 94% 29.81 0.0
Date Time (cdt) Wind (mph) Vis. (mi.) Weather Sky Cond. Air Dwpt Max. Min. Relative Humidity Wind Chill (°F) Heat Index (°F) altimeter (in) sea level (mb) 1 hr 3 hr 6 hr
6 hour
Temperature (ºF) Pressure Precipitation (in)